createdAt,value
2023-01-29T00:02:55.548Z,5.72
2023-01-29T00:05:58.940Z,5.78
2023-01-29T00:09:01.637Z,6.57
2023-01-29T00:12:11.096Z,6.20
2023-01-29T00:15:13.729Z,6.05
2023-01-29T00:18:16.960Z,6.37
2023-01-29T00:21:25.001Z,5.47
2023-01-29T00:24:27.907Z,6.12
2023-01-29T00:27:33.287Z,5.75
2023-01-29T00:30:37.805Z,5.27
2023-01-29T00:33:44.395Z,4.95
2023-01-29T00:36:50.549Z,6.70
2023-01-29T00:39:55.775Z,5.32
2023-01-29T00:43:17.748Z,5.63
2023-01-29T00:46:21.897Z,5.00
2023-01-29T00:49:27.724Z,4.30
2023-01-29T00:52:32.748Z,6.07
2023-01-29T00:55:37.732Z,5.28
2023-01-29T00:58:40.591Z,5.53
2023-01-29T01:02:05.362Z,6.32
2023-01-29T01:05:14.302Z,6.35
2023-01-29T01:08:38.165Z,5.28
2023-01-29T01:11:43.339Z,7.03
2023-01-29T01:14:47.064Z,5.55
2023-01-29T01:17:59.090Z,4.72
2023-01-29T01:21:02.274Z,4.40
2023-01-29T01:24:05.942Z,5.37
2023-01-29T01:27:11.673Z,5.15
2023-01-29T01:30:16.735Z,5.50
2023-01-29T01:33:20.476Z,5.78
2023-01-29T01:36:23.332Z,4.37
2023-01-29T01:39:29.001Z,5.62
2023-01-29T01:42:35.282Z,4.47
2023-01-29T01:48:43.748Z,3.35
2023-01-29T01:51:50.988Z,5.20
2023-01-29T01:54:55.227Z,3.58
2023-01-29T01:58:06.952Z,4.80
2023-01-29T02:01:12.795Z,3.78
2023-01-29T02:04:41.567Z,4.35
2023-01-29T02:08:06.607Z,4.68
2023-01-29T02:11:10.115Z,5.37
2023-01-29T02:14:13.032Z,4.40
2023-01-29T02:17:20.422Z,3.53
2023-01-29T02:20:30.139Z,4.68
2023-01-29T02:23:39.593Z,4.45
2023-01-29T02:27:15.315Z,5.15
2023-01-29T02:30:38.719Z,2.70
2023-01-29T02:33:55.806Z,3.42
2023-01-29T02:37:09.783Z,3.85
2023-01-29T02:40:35.226Z,4.85
2023-01-29T02:43:57.187Z,3.72
2023-01-29T02:47:15.121Z,3.67
2023-01-29T02:50:38.723Z,3.97
2023-01-29T02:53:59.794Z,4.80
2023-01-29T02:57:29.259Z,3.10
2023-01-29T03:00:40.396Z,3.08
2023-01-29T03:03:47.993Z,3.97
2023-01-29T03:07:06.713Z,2.55
2023-01-29T03:10:28.059Z,3.47
2023-01-29T03:13:40.420Z,3.67
2023-01-29T03:16:52.300Z,4.18
2023-01-29T03:19:57.048Z,4.10
2023-01-29T03:23:11.579Z,2.75
2023-01-29T03:26:40.650Z,3.45
2023-01-29T03:30:06.979Z,3.70
2023-01-29T03:33:20.979Z,6.03
2023-01-29T03:36:38.268Z,3.50
2023-01-29T03:39:42.467Z,3.95
2023-01-29T03:43:04.039Z,3.97
2023-01-29T03:46:19.103Z,2.62
2023-01-29T03:49:28.259Z,4.03
2023-01-29T03:52:45.428Z,4.35
2023-01-29T03:56:01.363Z,4.15
2023-01-29T03:59:16.712Z,3.85
2023-01-29T04:02:33.330Z,3.95
2023-01-29T04:05:51.814Z,4.78
2023-01-29T04:09:01.610Z,4.65
2023-01-29T04:12:14.151Z,5.78
2023-01-29T04:15:19.801Z,4.03
2023-01-29T04:18:26.283Z,4.95
2023-01-29T04:21:32.113Z,6.25
2023-01-29T04:24:35.627Z,5.37
2023-01-29T04:27:52.324Z,4.57
2023-01-29T04:30:58.507Z,5.00
2023-01-29T04:34:37.930Z,6.97
2023-01-29T04:37:46.116Z,5.60
2023-01-29T04:40:51.589Z,5.70
2023-01-29T04:44:18.663Z,5.28
2023-01-29T04:47:30.368Z,6.65
2023-01-29T04:50:46.884Z,5.68
2023-01-29T04:53:50.890Z,4.35
2023-01-29T04:57:14.904Z,5.80
2023-01-29T05:00:39.244Z,5.95
2023-01-29T05:03:46.989Z,4.55
2023-01-29T05:06:50.972Z,6.22
2023-01-29T05:09:59.149Z,5.90
2023-01-29T05:13:07.670Z,5.28
2023-01-29T05:16:23.999Z,5.43
2023-01-29T05:19:28.169Z,4.97
2023-01-29T05:22:32.225Z,5.43
2023-01-29T05:25:37.760Z,5.12
2023-01-29T05:28:41.197Z,5.70
2023-01-29T05:31:44.775Z,4.87
2023-01-29T05:34:48.362Z,5.75
2023-01-29T05:37:55.651Z,4.85
2023-01-29T05:41:00.111Z,4.82
2023-01-29T05:44:02.964Z,5.00
2023-01-29T05:47:09.447Z,5.12
2023-01-29T05:50:13.181Z,5.28
2023-01-29T05:53:15.975Z,4.20
2023-01-29T05:56:39.636Z,4.35
2023-01-29T05:59:42.793Z,4.60
2023-01-29T06:02:47.632Z,4.65
2023-01-29T06:05:50.551Z,5.07
2023-01-29T06:08:53.208Z,4.95
2023-01-29T06:12:01.146Z,4.22
2023-01-29T06:15:06.040Z,4.07
2023-01-29T06:18:08.954Z,4.90
2023-01-29T06:21:13.694Z,5.22
2023-01-29T06:24:19.085Z,5.45
2023-01-29T06:27:21.680Z,4.78
2023-01-29T06:30:24.842Z,4.47
2023-01-29T06:33:27.682Z,4.87
2023-01-29T06:36:30.841Z,3.67
2023-01-29T06:39:35.243Z,4.18
2023-01-29T06:42:40.852Z,4.37
2023-01-29T06:45:51.026Z,4.07
2023-01-29T06:48:54.536Z,3.35
2023-01-29T06:51:57.709Z,3.97
2023-01-29T06:55:04.093Z,2.80
2023-01-29T06:58:09.195Z,3.90
2023-01-29T07:01:29.305Z,3.12
2023-01-29T07:07:55.369Z,2.87
2023-01-29T07:11:01.929Z,3.25
2023-01-29T07:14:07.761Z,3.28
2023-01-29T07:17:13.467Z,3.78
2023-01-29T07:20:17.265Z,4.23
2023-01-29T07:23:20.011Z,3.15
2023-01-29T07:26:26.065Z,3.45
2023-01-29T07:29:28.663Z,3.35
2023-01-29T07:32:33.909Z,4.15
2023-01-29T07:35:42.846Z,3.33
2023-01-29T07:38:50.584Z,3.30
2023-01-29T07:41:53.565Z,4.45
2023-01-29T07:45:00.493Z,3.55
2023-01-29T07:48:05.251Z,3.08
2023-01-29T07:51:08.547Z,3.33
2023-01-29T07:54:18.378Z,3.78
2023-01-29T07:57:25.614Z,4.25
2023-01-29T08:00:29.984Z,3.37
2023-01-29T08:03:33.293Z,3.72
2023-01-29T08:06:36.178Z,3.20
2023-01-29T08:09:39.145Z,2.75
2023-01-29T08:12:41.700Z,2.33
2023-01-29T08:15:45.653Z,3.42
2023-01-29T08:18:50.461Z,2.67
2023-01-29T08:21:53.384Z,3.17
2023-01-29T08:25:06.463Z,3.45
2023-01-29T08:28:12.640Z,3.47
2023-01-29T08:34:25.771Z,3.42
2023-01-29T08:37:30.962Z,2.83
2023-01-29T08:40:36.284Z,3.25
2023-01-29T08:43:38.910Z,3.78
2023-01-29T08:46:44.104Z,3.95
2023-01-29T08:49:47.984Z,3.40
2023-01-29T08:52:59.097Z,2.78
2023-01-29T08:56:07.082Z,2.92
2023-01-29T08:59:11.028Z,3.25
2023-01-29T09:02:16.075Z,3.65
2023-01-29T09:05:21.309Z,2.78
2023-01-29T09:08:23.943Z,2.70
2023-01-29T09:11:27.153Z,2.80
2023-01-29T09:14:29.678Z,2.58
2023-01-29T09:17:37.814Z,1.87
2023-01-29T09:20:42.655Z,2.97
2023-01-29T09:23:46.896Z,2.35
2023-01-29T09:26:52.288Z,2.40
2023-01-29T09:29:55.847Z,2.33
2023-01-29T09:33:00.827Z,3.20
2023-01-29T09:36:05.225Z,3.00
2023-01-29T09:39:10.052Z,2.70
2023-01-29T09:42:29.262Z,3.65
2023-01-29T09:45:32.418Z,2.67
2023-01-29T09:48:38.764Z,2.58
2023-01-29T09:55:10.763Z,1.98
2023-01-29T09:58:21.990Z,2.75
2023-01-29T10:01:43.612Z,3.12
2023-01-29T10:05:02.944Z,2.78
2023-01-29T10:08:07.871Z,3.83
2023-01-29T10:11:39.984Z,3.87
2023-01-29T10:14:50.660Z,2.25
2023-01-29T10:18:14.674Z,2.72
2023-01-29T10:21:32.856Z,2.40
2023-01-29T10:24:39.153Z,2.08
2023-01-29T10:27:48.884Z,2.78
2023-01-29T10:31:00.487Z,2.62
2023-01-29T10:34:17.403Z,2.85
2023-01-29T10:37:31.100Z,2.30
2023-01-29T10:41:12.865Z,2.67
2023-01-29T10:44:33.544Z,2.37
2023-01-29T10:47:41.940Z,2.33
2023-01-29T10:51:36.474Z,2.65
2023-01-29T10:54:57.936Z,2.90
2023-01-29T10:58:30.240Z,2.33
2023-01-29T11:01:33.107Z,2.25
2023-01-29T11:04:39.684Z,2.83
2023-01-29T11:07:42.541Z,1.90
2023-01-29T11:10:53.434Z,2.22
2023-01-29T11:14:10.853Z,2.40
2023-01-29T11:17:25.403Z,2.53
2023-01-29T11:20:29.870Z,2.15
2023-01-29T11:23:34.399Z,3.00
2023-01-29T11:26:40.477Z,2.20
2023-01-29T11:29:48.260Z,2.10
2023-01-29T11:33:24.015Z,2.70
2023-01-29T11:36:39.959Z,3.17
2023-01-29T11:39:50.863Z,2.70
2023-01-29T11:42:56.356Z,3.00
2023-01-29T11:46:05.716Z,4.07
2023-01-29T11:49:27.270Z,2.80
2023-01-29T11:52:42.094Z,3.20
2023-01-29T11:55:50.847Z,2.50
2023-01-29T11:58:58.544Z,2.22
2023-01-29T12:02:22.326Z,2.53
2023-01-29T12:05:26.974Z,2.20
2023-01-29T12:08:38.131Z,2.28
2023-01-29T12:11:41.409Z,1.98
2023-01-29T12:14:45.270Z,2.67
2023-01-29T12:17:58.398Z,2.25
2023-01-29T12:21:06.173Z,2.03
2023-01-29T12:24:23.197Z,1.85
2023-01-29T12:27:44.005Z,2.62
2023-01-29T12:31:19.170Z,2.35
2023-01-29T12:34:46.261Z,2.65
2023-01-29T12:37:57.764Z,3.37
2023-01-29T12:41:17.637Z,1.90
2023-01-29T12:45:01.084Z,1.55
2023-01-29T12:48:14.744Z,3.10
2023-01-29T12:51:28.496Z,2.35
2023-01-29T12:54:50.894Z,2.42
2023-01-29T12:58:00.511Z,2.08
2023-01-29T13:01:13.027Z,1.98
2023-01-29T13:04:36.730Z,2.22
2023-01-29T13:07:47.594Z,1.45
2023-01-29T13:10:54.086Z,2.08
2023-01-29T13:14:08.561Z,2.25
2023-01-29T13:17:25.025Z,1.60
2023-01-29T13:20:49.836Z,1.85
2023-01-29T13:23:59.639Z,1.65
2023-01-29T13:27:02.811Z,2.00
2023-01-29T13:30:07.711Z,2.10
2023-01-29T13:33:23.951Z,1.90
2023-01-29T13:36:30.592Z,1.37
2023-01-29T13:39:38.012Z,1.92
2023-01-29T13:42:48.213Z,1.65
2023-01-29T13:45:54.081Z,1.42
2023-01-29T13:49:01.254Z,1.67
2023-01-29T13:52:52.552Z,2.95
2023-01-29T13:55:55.742Z,1.83
2023-01-29T13:59:01.222Z,1.80
2023-01-29T14:02:28.484Z,2.30
2023-01-29T14:08:34.571Z,1.33
2023-01-29T14:11:48.743Z,1.90
2023-01-29T14:15:01.511Z,2.10
2023-01-29T14:18:09.117Z,2.47
2023-01-29T14:21:30.746Z,1.67
2023-01-29T14:24:36.526Z,2.37
2023-01-29T14:28:16.532Z,2.05
2023-01-29T14:32:06.212Z,1.75
2023-01-29T14:35:34.495Z,1.85
2023-01-29T14:38:42.788Z,1.92
2023-01-29T14:42:22.555Z,1.98
2023-01-29T14:45:46.307Z,1.80
2023-01-29T14:48:52.330Z,2.10
2023-01-29T14:51:57.133Z,1.50
2023-01-29T14:55:05.261Z,2.35
2023-01-29T14:58:17.186Z,2.12
2023-01-29T15:01:43.766Z,1.80
2023-01-29T15:04:55.565Z,2.35
2023-01-29T15:08:04.445Z,1.48
2023-01-29T15:11:33.886Z,1.55
2023-01-29T15:14:44.528Z,1.67
2023-01-29T15:18:05.366Z,1.45
2023-01-29T15:21:19.678Z,2.65
2023-01-29T15:24:27.157Z,2.00
2023-01-29T15:27:35.356Z,2.10
2023-01-29T15:30:39.184Z,1.92
2023-01-29T15:33:47.496Z,1.85
2023-01-29T15:36:53.327Z,2.20
2023-01-29T15:39:56.660Z,2.05
2023-01-29T15:43:00.996Z,2.60
2023-01-29T15:46:19.476Z,2.00
2023-01-29T15:49:32.516Z,3.03
2023-01-29T15:52:39.623Z,2.95
2023-01-29T15:55:46.496Z,2.30
2023-01-29T15:58:55.159Z,1.95
2023-01-29T16:02:42.434Z,2.30
2023-01-29T16:05:48.427Z,3.50
2023-01-29T16:09:23.690Z,1.50
2023-01-29T16:12:52.222Z,1.77
2023-01-29T16:16:00.738Z,1.30
2023-01-29T16:19:22.108Z,2.22
2023-01-29T16:22:37.095Z,2.47
2023-01-29T16:25:44.871Z,2.12
2023-01-29T16:28:52.584Z,1.85
2023-01-29T16:32:39.779Z,2.05
2023-01-29T16:36:11.819Z,2.28
2023-01-29T16:39:45.303Z,2.03
2023-01-29T16:42:51.010Z,2.78
2023-01-29T16:46:25.399Z,1.50
2023-01-29T16:49:28.654Z,1.90
2023-01-29T16:52:36.482Z,5.55
2023-01-29T16:55:43.726Z,2.80
2023-01-29T16:58:53.619Z,2.70
2023-01-29T17:02:05.395Z,2.67
2023-01-29T17:05:22.460Z,2.60
2023-01-29T17:09:06.709Z,1.83
2023-01-29T17:12:22.283Z,3.08
2023-01-29T17:15:43.051Z,1.98
2023-01-29T17:18:49.951Z,1.45
2023-01-29T17:21:53.626Z,2.03
2023-01-29T17:24:57.396Z,2.00
2023-01-29T17:28:03.149Z,1.75
2023-01-29T17:31:29.713Z,2.20
2023-01-29T17:34:36.051Z,2.45
2023-01-29T17:37:41.839Z,2.75
2023-01-29T17:40:57.209Z,1.95
2023-01-29T17:44:01.182Z,2.80
2023-01-29T17:47:05.523Z,2.60
2023-01-29T17:50:36.268Z,3.25
2023-01-29T17:53:46.075Z,2.05
2023-01-29T17:56:58.151Z,1.50
2023-01-29T18:00:02.549Z,3.03
2023-01-29T18:03:11.803Z,2.62
2023-01-29T18:06:28.489Z,1.85
2023-01-29T18:09:32.038Z,2.12
2023-01-29T18:12:36.256Z,2.30
2023-01-29T18:15:40.746Z,2.50
2023-01-29T18:18:51.527Z,1.95
2023-01-29T18:21:54.981Z,2.08
2023-01-29T18:25:00.707Z,2.35
2023-01-29T18:28:07.338Z,4.65
2023-01-29T18:34:19.350Z,2.08
2023-01-29T18:37:30.049Z,1.45
2023-01-29T18:41:02.061Z,2.47
2023-01-29T18:44:30.183Z,2.15
2023-01-29T18:47:37.568Z,2.87
2023-01-29T18:50:41.252Z,2.25
2023-01-29T18:53:46.519Z,2.47
2023-01-29T18:57:13.027Z,2.40
2023-01-29T19:00:16.729Z,2.30
2023-01-29T19:03:24.650Z,2.00
2023-01-29T19:06:27.562Z,1.92
2023-01-29T19:09:30.936Z,4.60
2023-01-29T19:12:34.418Z,2.55
2023-01-29T19:15:43.282Z,2.58
2023-01-29T19:18:46.809Z,2.35
2023-01-29T19:21:53.925Z,2.28
2023-01-29T19:24:58.996Z,2.90
2023-01-29T19:28:02.624Z,1.92
2023-01-29T19:31:05.991Z,2.60
2023-01-29T19:34:11.357Z,2.27
2023-01-29T19:37:19.196Z,2.17
2023-01-29T19:40:24.863Z,1.98
2023-01-29T19:43:32.404Z,2.15
2023-01-29T19:46:35.704Z,2.20
2023-01-29T19:49:40.434Z,2.87
2023-01-29T19:52:51.505Z,2.15
2023-01-29T19:56:07.232Z,2.58
2023-01-29T19:59:11.361Z,2.17
2023-01-29T20:02:15.238Z,2.53
2023-01-29T20:05:19.573Z,1.92
2023-01-29T20:08:23.905Z,2.60
2023-01-29T20:11:29.556Z,2.60
2023-01-29T20:14:34.442Z,2.30
2023-01-29T20:17:38.056Z,1.58
2023-01-29T20:20:47.427Z,2.47
2023-01-29T20:23:51.816Z,2.17
2023-01-29T20:26:55.031Z,1.70
2023-01-29T20:29:59.907Z,2.00
2023-01-29T20:33:06.045Z,2.08
2023-01-29T20:36:13.291Z,2.20
2023-01-29T20:39:18.853Z,2.03
2023-01-29T20:42:22.270Z,1.60
2023-01-29T20:45:28.519Z,1.87
2023-01-29T20:48:33.247Z,2.08
2023-01-29T20:51:38.343Z,1.80
2023-01-29T20:54:45.614Z,1.92
2023-01-29T20:58:05.636Z,1.35
2023-01-29T21:01:12.740Z,2.50
2023-01-29T21:04:18.171Z,2.58
2023-01-29T21:07:21.276Z,2.20
2023-01-29T21:10:25.233Z,1.90
2023-01-29T21:13:31.024Z,2.45
2023-01-29T21:16:36.098Z,1.70
2023-01-29T21:19:39.105Z,2.92
2023-01-29T21:22:44.395Z,1.50
2023-01-29T21:26:07.831Z,2.55
2023-01-29T21:29:32.839Z,1.67
2023-01-29T21:32:36.211Z,1.87
2023-01-29T21:35:39.352Z,1.50
2023-01-29T21:38:42.272Z,2.53
2023-01-29T21:42:07.592Z,2.20
2023-01-29T21:45:11.030Z,2.10
2023-01-29T21:48:15.258Z,1.98
2023-01-29T21:51:18.972Z,1.23
2023-01-29T21:54:31.360Z,2.22
2023-01-29T21:57:34.644Z,2.83
2023-01-29T22:00:37.763Z,1.58
2023-01-29T22:03:41.713Z,2.50
2023-01-29T22:10:48.999Z,2.00
2023-01-29T22:13:54.044Z,2.50
2023-01-29T22:16:59.612Z,2.08
2023-01-29T22:20:30.042Z,1.90
2023-01-29T22:23:37.177Z,2.03
2023-01-29T22:26:42.664Z,3.40
2023-01-29T22:29:47.850Z,1.83
2023-01-29T22:32:51.298Z,1.62
2023-01-29T22:35:57.630Z,1.70
2023-01-29T22:42:06.224Z,1.55
2023-01-29T22:45:44.094Z,2.70
2023-01-29T22:49:19.595Z,2.53
2023-01-29T22:52:56.281Z,2.12
2023-01-29T22:56:41.354Z,2.50
2023-01-29T23:00:17.179Z,2.03
2023-01-29T23:03:56.573Z,2.90
2023-01-29T23:07:32.355Z,2.80
2023-01-29T23:11:15.652Z,2.15
2023-01-29T23:14:51.870Z,2.97
2023-01-29T23:18:30.582Z,2.78
2023-01-29T23:22:07.245Z,1.58
2023-01-29T23:26:04.626Z,2.33
2023-01-29T23:29:50.087Z,1.45
2023-01-29T23:33:07.608Z,2.12
2023-01-29T23:36:35.757Z,3.42
2023-01-29T23:40:11.231Z,2.58
2023-01-29T23:43:56.454Z,2.33
2023-01-29T23:47:32.612Z,2.50
2023-01-29T23:50:52.440Z,2.87
2023-01-29T23:54:10.055Z,3.10
2023-01-29T23:57:37.179Z,2.25
